createdAt,value
2019-01-15T00:04:16.715Z,-0.20
2019-01-15T00:09:21.036Z,-0.20
2019-01-15T00:14:25.744Z,-0.20
2019-01-15T00:19:32.863Z,-0.20
2019-01-15T00:24:37.573Z,-0.10
2019-01-15T00:29:42.194Z,-0.10
2019-01-15T00:34:47.244Z,-0.10
2019-01-15T00:39:52.608Z,-0.10
2019-01-15T00:44:57.753Z,0.00
2019-01-15T00:50:02.718Z,0.00
2019-01-15T00:55:07.938Z,-0.10
2019-01-15T01:00:15.671Z,0.00
2019-01-15T01:05:20.889Z,0.00
2019-01-15T01:10:25.985Z,0.10
2019-01-15T01:15:31.527Z,0.10
2019-01-15T01:20:37.124Z,0.10
2019-01-15T01:25:42.157Z,0.20
2019-01-15T01:30:46.839Z,0.30
2019-01-15T01:35:51.306Z,0.30
2019-01-15T01:40:56.150Z,0.30
2019-01-15T01:46:01.672Z,0.30
2019-01-15T01:51:06.157Z,0.40
2019-01-15T01:56:10.918Z,0.40
2019-01-15T02:01:15.384Z,0.30
2019-01-15T02:06:20.285Z,0.40
2019-01-15T02:11:24.905Z,0.40
2019-01-15T02:16:29.339Z,0.40
2019-01-15T02:21:33.883Z,0.50
2019-01-15T02:26:38.453Z,0.40
2019-01-15T02:31:45.712Z,0.50
2019-01-15T02:36:50.209Z,0.50
2019-01-15T02:41:55.158Z,0.60
2019-01-15T02:47:00.699Z,0.50
2019-01-15T02:52:05.009Z,0.60
2019-01-15T02:57:10.166Z,0.50
2019-01-15T03:02:14.945Z,0.50
2019-01-15T03:07:21.775Z,0.50
2019-01-15T03:12:26.231Z,0.40
2019-01-15T03:17:30.729Z,0.50
2019-01-15T03:22:35.171Z,0.40
2019-01-15T03:27:39.808Z,0.30
2019-01-15T03:32:44.163Z,0.30
2019-01-15T03:37:48.881Z,0.30
2019-01-15T03:42:53.927Z,0.30
2019-01-15T03:47:58.213Z,0.20
2019-01-15T03:53:03.112Z,0.20
2019-01-15T03:58:09.766Z,0.20
2019-01-15T04:03:14.059Z,0.10
2019-01-15T04:08:18.417Z,0.10
2019-01-15T04:13:23.038Z,0.00
2019-01-15T04:18:29.557Z,0.00
2019-01-15T04:23:33.774Z,0.00
2019-01-15T04:28:39.418Z,0.10
2019-01-15T04:33:44.146Z,0.10
2019-01-15T04:38:48.946Z,0.10
2019-01-15T04:43:53.260Z,0.10
2019-01-15T04:48:58.028Z,0.10
2019-01-15T04:54:02.620Z,0.10
2019-01-15T04:59:09.242Z,0.00
2019-01-15T05:04:14.107Z,0.00
2019-01-15T05:09:18.449Z,0.00
2019-01-15T05:14:24.183Z,0.00
2019-01-15T05:19:28.877Z,0.00
2019-01-15T05:24:34.769Z,0.00
2019-01-15T05:29:39.939Z,0.00
2019-01-15T05:34:44.783Z,-0.10
2019-01-15T05:39:49.201Z,-0.20
2019-01-15T05:44:56.553Z,-0.10
2019-01-15T05:50:01.416Z,0.00
2019-01-15T05:55:06.380Z,0.00
2019-01-15T06:00:13.377Z,0.10
2019-01-15T06:05:18.241Z,0.10
2019-01-15T06:10:23.626Z,0.20
2019-01-15T06:15:28.944Z,0.20
2019-01-15T06:20:33.888Z,0.10
2019-01-15T06:25:39.348Z,0.20
2019-01-15T06:30:46.655Z,0.20
2019-01-15T06:35:50.975Z,0.30
2019-01-15T06:40:55.646Z,0.30
2019-01-15T06:46:01.303Z,0.40
2019-01-15T06:51:05.550Z,0.30
2019-01-15T06:56:10.291Z,0.30
2019-01-15T07:01:14.922Z,0.30
2019-01-15T07:06:20.689Z,0.30
2019-01-15T07:11:26.239Z,0.40
2019-01-15T07:16:31.165Z,0.50
2019-01-15T07:21:36.100Z,0.50
2019-01-15T07:26:43.697Z,0.40
2019-01-15T07:31:48.537Z,0.50
2019-01-15T07:36:53.367Z,0.50
2019-01-15T07:41:57.916Z,0.60
2019-01-15T07:47:02.240Z,0.70
2019-01-15T07:52:06.656Z,0.70
2019-01-15T07:57:13.956Z,0.70
2019-01-15T08:02:18.695Z,0.80
2019-01-15T08:07:23.088Z,0.90
2019-01-15T08:12:29.001Z,1.00
2019-01-15T08:17:33.341Z,1.10
2019-01-15T08:22:38.531Z,1.30
2019-01-15T08:27:43.316Z,1.30
2019-01-15T08:32:47.526Z,1.40
2019-01-15T08:37:52.313Z,1.50
2019-01-15T08:42:57.043Z,1.70
2019-01-15T08:48:12.927Z,1.80
2019-01-15T08:53:20.388Z,2.20
2019-01-15T08:58:26.419Z,2.30
2019-01-15T09:03:33.958Z,2.30
2019-01-15T09:08:38.538Z,2.30
2019-01-15T09:13:45.349Z,2.60
2019-01-15T09:18:50.606Z,2.90
2019-01-15T09:23:58.616Z,2.90
2019-01-15T09:29:06.227Z,2.90
2019-01-15T09:34:12.821Z,2.60
2019-01-15T09:39:18.876Z,2.30
2019-01-15T09:44:23.386Z,2.10
2019-01-15T09:49:28.627Z,2.00
2019-01-15T09:54:33.301Z,2.10
2019-01-15T09:59:38.251Z,2.50
2019-01-15T10:04:42.587Z,3.10
2019-01-15T10:09:48.137Z,3.20
2019-01-15T10:14:58.878Z,3.20
2019-01-15T10:20:03.610Z,3.20
2019-01-15T10:25:13.182Z,3.20
2019-01-15T10:31:15.485Z,2.90
2019-01-15T10:36:18.679Z,2.70
2019-01-15T10:41:24.391Z,3.00
2019-01-15T10:46:32.065Z,3.10
2019-01-15T10:51:35.670Z,3.10
2019-01-15T10:56:41.737Z,3.10
2019-01-15T11:01:46.362Z,3.30
2019-01-15T11:06:50.950Z,3.30
2019-01-15T11:11:57.760Z,3.50
2019-01-15T11:17:02.472Z,3.50
2019-01-15T11:22:10.984Z,3.60
2019-01-15T11:27:15.685Z,3.80
2019-01-15T11:32:20.454Z,4.10
2019-01-15T11:37:25.174Z,4.30
2019-01-15T11:42:30.140Z,4.50
2019-01-15T11:47:38.561Z,4.40
2019-01-15T11:52:43.382Z,4.30
2019-01-15T11:57:48.495Z,4.30
2019-01-15T12:03:04.699Z,4.30
2019-01-15T12:08:32.169Z,4.40
2019-01-15T12:14:07.605Z,4.30
2019-01-15T12:19:34.077Z,4.20
2019-01-15T12:24:56.335Z,4.40
2019-01-15T12:30:21.996Z,4.30
2019-01-15T12:35:44.646Z,4.10
2019-01-15T12:41:08.026Z,3.70
2019-01-15T12:46:37.196Z,3.50
2019-01-15T12:52:00.910Z,3.40
2019-01-15T12:57:33.158Z,3.50
2019-01-15T13:03:09.010Z,3.50
2019-01-15T13:08:25.237Z,3.40
2019-01-15T13:13:49.132Z,3.30
2019-01-15T13:19:03.558Z,3.30
2019-01-15T13:24:36.847Z,3.30
2019-01-15T13:29:57.715Z,3.20
2019-01-15T13:35:27.038Z,3.10
2019-01-15T13:40:40.684Z,3.10
2019-01-15T13:46:16.444Z,3.10
2019-01-15T13:51:55.359Z,3.20
2019-01-15T13:57:28.225Z,3.20
2019-01-15T14:02:48.428Z,3.30
2019-01-15T14:08:24.503Z,3.40
2019-01-15T14:13:50.496Z,3.40
2019-01-15T14:19:13.821Z,3.30
2019-01-15T14:24:45.992Z,3.30
2019-01-15T14:30:21.644Z,3.30
2019-01-15T14:35:48.136Z,3.40
2019-01-15T14:41:20.835Z,3.50
2019-01-15T14:46:51.110Z,3.50
2019-01-15T14:52:13.160Z,3.40
2019-01-15T14:57:37.255Z,3.40
2019-01-15T15:03:00.720Z,3.30
2019-01-15T15:08:34.811Z,3.40
2019-01-15T15:13:53.835Z,3.30
2019-01-15T15:19:32.491Z,3.30
2019-01-15T15:24:56.175Z,3.20
2019-01-15T15:30:28.319Z,3.20
2019-01-15T15:35:55.779Z,3.10
2019-01-15T15:41:19.173Z,3.00
2019-01-15T15:46:46.001Z,2.90
2019-01-15T15:52:07.726Z,2.90
2019-01-15T15:57:24.368Z,3.00
2019-01-15T16:03:00.786Z,2.90
2019-01-15T16:08:19.870Z,2.90
2019-01-15T16:13:52.973Z,2.90
2019-01-15T16:19:19.199Z,2.80
2019-01-15T16:24:48.444Z,2.80
2019-01-15T16:30:11.372Z,2.90
2019-01-15T16:35:41.295Z,2.80
2019-01-15T16:41:03.170Z,2.80
2019-01-15T16:46:26.225Z,2.90
2019-01-15T16:51:53.492Z,2.80
2019-01-15T16:57:15.859Z,2.90
2019-01-15T17:02:46.855Z,3.00
2019-01-15T17:08:00.132Z,3.00
2019-01-15T17:13:24.104Z,2.90
2019-01-15T17:18:51.116Z,3.00
2019-01-15T17:24:15.007Z,2.90
2019-01-15T17:29:27.737Z,2.90
2019-01-15T17:34:58.249Z,3.00
2019-01-15T17:40:25.596Z,3.00
2019-01-15T17:46:00.226Z,3.00
2019-01-15T17:51:39.081Z,3.00
2019-01-15T17:57:03.878Z,3.00
2019-01-15T18:02:27.697Z,2.90
2019-01-15T18:08:04.627Z,2.90
2019-01-15T18:13:31.115Z,2.90
2019-01-15T18:19:12.074Z,3.00
2019-01-15T18:24:39.674Z,2.90
2019-01-15T18:30:08.908Z,2.90
2019-01-15T18:35:47.306Z,2.90
2019-01-15T18:41:17.016Z,3.00
2019-01-15T18:46:55.932Z,2.90
2019-01-15T18:52:15.317Z,2.90
2019-01-15T18:57:37.833Z,2.80
2019-01-15T19:03:11.313Z,2.80
2019-01-15T19:08:52.718Z,2.80
2019-01-15T19:14:09.288Z,2.80
2019-01-15T19:19:42.196Z,2.80
2019-01-15T19:25:04.795Z,2.70
2019-01-15T19:30:29.361Z,2.80
2019-01-15T19:35:54.351Z,2.80
2019-01-15T19:41:17.695Z,2.80
2019-01-15T19:46:45.142Z,2.80
2019-01-15T19:52:18.101Z,2.80
2019-01-15T19:57:41.841Z,2.70
2019-01-15T20:03:09.187Z,2.80
2019-01-15T20:08:36.691Z,2.80
2019-01-15T20:14:19.082Z,2.70
2019-01-15T20:19:41.869Z,2.80
2019-01-15T20:25:04.135Z,2.70
2019-01-15T20:30:41.555Z,2.70
2019-01-15T20:36:23.738Z,2.70
2019-01-15T20:42:08.626Z,2.70
2019-01-15T20:47:29.585Z,2.70
2019-01-15T20:52:52.934Z,2.60
2019-01-15T20:58:25.320Z,2.60
2019-01-15T21:03:55.165Z,2.60
2019-01-15T21:09:18.004Z,2.60
2019-01-15T21:14:40.517Z,2.50
2019-01-15T21:20:01.781Z,2.60
2019-01-15T21:25:28.214Z,2.50
2019-01-15T21:31:01.018Z,2.50
2019-01-15T21:36:31.377Z,2.50
2019-01-15T21:41:58.160Z,2.40
2019-01-15T21:47:21.817Z,2.30
2019-01-15T21:52:47.929Z,2.30
2019-01-15T21:58:12.090Z,2.30
2019-01-15T22:03:34.240Z,2.30
2019-01-15T22:08:56.378Z,2.20
2019-01-15T22:14:19.012Z,2.10
2019-01-15T22:19:45.818Z,2.10
2019-01-15T22:25:07.033Z,2.20
2019-01-15T22:30:32.545Z,2.20
2019-01-15T22:36:04.063Z,2.20
2019-01-15T22:41:31.792Z,2.10
2019-01-15T22:46:54.698Z,2.10
2019-01-15T22:52:27.064Z,2.10
2019-01-15T22:57:51.382Z,2.20
2019-01-15T23:03:07.012Z,2.10
2019-01-15T23:08:22.742Z,2.20
2019-01-15T23:13:51.987Z,2.10
2019-01-15T23:19:13.881Z,2.20
2019-01-15T23:24:40.350Z,2.20
2019-01-15T23:30:10.860Z,2.20
2019-01-15T23:35:34.703Z,2.20
2019-01-15T23:41:16.561Z,2.20
2019-01-15T23:46:40.352Z,2.20
2019-01-15T23:52:03.219Z,2.20
2019-01-15T23:57:35.571Z,2.30
